createdAt,value
2019-03-24T00:00:36.397Z,7.06
2019-03-24T00:01:41.023Z,7.01
2019-03-24T00:02:37.360Z,6.99
2019-03-24T00:03:36.358Z,7.07
2019-03-24T00:04:36.347Z,7.13
2019-03-24T00:05:36.352Z,7.13
2019-03-24T00:06:36.336Z,7.10
2019-03-24T00:07:36.317Z,7.18
2019-03-24T00:08:36.298Z,7.18
2019-03-24T00:09:36.297Z,7.18
2019-03-24T00:10:36.274Z,7.16
2019-03-24T00:11:36.313Z,7.22
2019-03-24T00:12:36.256Z,7.18
2019-03-24T00:13:36.251Z,7.24
2019-03-24T00:14:36.232Z,7.22
2019-03-24T00:15:36.227Z,7.22
2019-03-24T00:16:36.258Z,7.19
2019-03-24T00:17:36.218Z,7.26
2019-03-24T00:18:36.192Z,7.28
2019-03-24T00:19:36.190Z,7.26
2019-03-24T00:20:36.184Z,7.22
2019-03-24T00:21:36.162Z,7.24
2019-03-24T00:22:36.164Z,7.28
2019-03-24T00:23:36.140Z,7.36
2019-03-24T00:24:36.127Z,7.28
2019-03-24T00:25:36.118Z,7.31
2019-03-24T00:26:36.115Z,7.34
2019-03-24T00:27:36.117Z,7.22
2019-03-24T00:28:36.083Z,7.26
2019-03-24T00:29:36.070Z,7.33
2019-03-24T00:30:36.072Z,7.34
2019-03-24T00:31:36.051Z,7.26
2019-03-24T00:32:36.083Z,7.19
2019-03-24T00:33:36.040Z,7.25
2019-03-24T00:34:36.017Z,7.15
2019-03-24T00:35:36.013Z,7.13
2019-03-24T00:36:36.001Z,7.11
2019-03-24T00:37:36.006Z,7.15
2019-03-24T00:38:36.026Z,7.15
2019-03-24T00:39:35.965Z,7.06
2019-03-24T00:40:35.961Z,6.96
2019-03-24T00:41:35.945Z,7.00
2019-03-24T00:42:35.951Z,6.97
2019-03-24T00:43:35.923Z,6.91
2019-03-24T00:44:35.942Z,6.85
2019-03-24T00:45:37.110Z,6.82
2019-03-24T00:46:35.893Z,6.74
2019-03-24T00:47:35.925Z,6.70
2019-03-24T00:48:35.875Z,6.65
2019-03-24T00:49:35.863Z,6.63
2019-03-24T00:50:35.871Z,6.67
2019-03-24T00:51:35.843Z,6.56
2019-03-24T00:52:35.831Z,6.49
2019-03-24T00:53:35.831Z,6.43
2019-03-24T00:54:35.817Z,6.40
2019-03-24T00:55:35.797Z,6.35
2019-03-24T00:56:35.793Z,6.25
2019-03-24T00:57:37.540Z,6.24
2019-03-24T00:58:35.842Z,6.31
2019-03-24T00:59:35.756Z,6.21
2019-03-24T01:00:35.785Z,6.19
2019-03-24T01:01:35.733Z,6.16
2019-03-24T01:02:35.725Z,6.02
2019-03-24T01:03:35.763Z,6.02
2019-03-24T01:04:35.703Z,6.03
2019-03-24T01:05:35.691Z,5.95
2019-03-24T01:06:35.683Z,6.02
2019-03-24T01:07:35.674Z,5.94
2019-03-24T01:08:35.705Z,5.88
2019-03-24T01:09:35.649Z,5.84
2019-03-24T01:10:35.634Z,5.80
2019-03-24T01:11:35.626Z,5.75
2019-03-24T01:12:35.618Z,5.76
2019-03-24T01:13:35.628Z,5.59
2019-03-24T01:14:35.634Z,5.62
2019-03-24T01:15:35.586Z,5.50
2019-03-24T01:16:35.574Z,5.51
2019-03-24T01:17:35.562Z,5.43
2019-03-24T01:18:35.567Z,5.29
2019-03-24T01:19:35.546Z,5.25
2019-03-24T01:20:35.545Z,5.27
2019-03-24T01:21:35.539Z,5.09
2019-03-24T01:22:35.536Z,5.04
2019-03-24T01:23:35.519Z,5.04
2019-03-24T01:24:35.528Z,4.98
2019-03-24T01:25:35.480Z,4.94
2019-03-24T01:26:35.464Z,4.97
2019-03-24T01:27:35.468Z,4.79
2019-03-24T01:28:35.479Z,4.74
2019-03-24T01:29:35.454Z,4.67
2019-03-24T01:30:35.425Z,4.69
2019-03-24T01:31:35.420Z,4.69
2019-03-24T01:32:35.404Z,4.64
2019-03-24T01:33:35.411Z,4.53
2019-03-24T01:34:35.422Z,4.53
2019-03-24T01:35:35.374Z,4.45
2019-03-24T01:36:35.360Z,4.45
2019-03-24T01:37:35.356Z,4.48
2019-03-24T01:38:35.366Z,4.38
2019-03-24T01:39:35.328Z,4.35
2019-03-24T01:40:35.326Z,4.26
2019-03-24T01:41:35.310Z,4.23
2019-03-24T01:42:35.295Z,4.18
2019-03-24T01:43:35.288Z,4.21
2019-03-24T01:44:35.289Z,4.18
2019-03-24T01:45:35.263Z,4.18
2019-03-24T01:46:35.291Z,4.18
2019-03-24T01:47:35.250Z,4.18
2019-03-24T01:48:35.240Z,4.09
2019-03-24T01:49:35.243Z,4.08
2019-03-24T01:50:35.215Z,4.10
2019-03-24T01:51:35.204Z,4.12
2019-03-24T01:52:35.214Z,4.08
2019-03-24T01:53:35.183Z,4.08
2019-03-24T01:54:35.186Z,4.10
2019-03-24T01:55:35.162Z,4.05
2019-03-24T01:56:35.155Z,4.08
2019-03-24T01:57:35.133Z,4.12
2019-03-24T01:58:35.131Z,4.02
2019-03-24T01:59:35.128Z,3.98
2019-03-24T02:00:35.109Z,4.02
2019-03-24T02:01:35.093Z,4.05
2019-03-24T02:02:35.090Z,4.00
2019-03-24T02:03:35.071Z,4.08
2019-03-24T02:04:35.091Z,4.00
2019-03-24T02:05:35.053Z,4.00
2019-03-24T02:06:35.043Z,4.03
2019-03-24T02:07:35.039Z,3.99
2019-03-24T02:08:35.064Z,4.06
2019-03-24T02:09:35.039Z,3.94
2019-03-24T02:10:35.019Z,3.94
2019-03-24T02:11:34.989Z,3.96
2019-03-24T02:12:34.981Z,4.00
2019-03-24T02:13:34.965Z,3.92
2019-03-24T02:14:34.953Z,3.87
2019-03-24T02:15:34.968Z,3.85
2019-03-24T02:16:34.959Z,3.91
2019-03-24T02:17:34.929Z,3.85
2019-03-24T02:18:34.922Z,3.76
2019-03-24T02:19:34.905Z,3.84
2019-03-24T02:20:34.910Z,3.80
2019-03-24T02:21:34.885Z,3.81
2019-03-24T02:22:34.871Z,3.67
2019-03-24T02:23:34.877Z,3.67
2019-03-24T02:24:34.873Z,3.64
2019-03-24T02:25:34.861Z,3.56
2019-03-24T02:26:34.830Z,3.49
2019-03-24T02:27:34.817Z,3.49
2019-03-24T02:28:34.809Z,3.49
2019-03-24T02:29:34.804Z,3.45
2019-03-24T02:30:34.807Z,3.45
2019-03-24T02:31:34.774Z,3.37
2019-03-24T02:32:34.783Z,3.45
2019-03-24T02:33:34.757Z,3.46
2019-03-24T02:34:34.754Z,3.44
2019-03-24T02:35:34.839Z,3.35
2019-03-24T02:36:34.723Z,3.37
2019-03-24T02:37:34.712Z,3.36
2019-03-24T02:38:34.758Z,3.30
2019-03-24T02:39:34.693Z,3.36
2019-03-24T02:40:34.694Z,3.26
2019-03-24T02:41:34.672Z,3.26
2019-03-24T02:42:34.664Z,3.22
2019-03-24T02:43:34.646Z,3.22
2019-03-24T02:44:34.638Z,3.18
2019-03-24T02:45:34.708Z,3.11
2019-03-24T02:46:34.629Z,3.12
2019-03-24T02:47:34.607Z,3.09
2019-03-24T02:48:34.604Z,3.00
2019-03-24T02:49:34.584Z,2.94
2019-03-24T02:50:34.571Z,2.94
2019-03-24T02:51:34.579Z,2.96
2019-03-24T02:52:34.561Z,2.82
2019-03-24T02:53:34.550Z,2.81
2019-03-24T02:54:34.532Z,2.84
2019-03-24T02:55:34.524Z,2.78
2019-03-24T02:56:34.543Z,2.78
2019-03-24T02:57:34.497Z,2.87
2019-03-24T02:58:34.499Z,2.81
2019-03-24T02:59:34.480Z,2.84
2019-03-24T03:00:34.538Z,2.72
2019-03-24T03:01:34.458Z,2.61
2019-03-24T03:02:34.474Z,2.71
2019-03-24T03:03:34.435Z,2.63
2019-03-24T03:04:34.429Z,2.48
2019-03-24T03:05:34.425Z,2.50
2019-03-24T03:06:34.412Z,2.45
2019-03-24T03:07:34.421Z,2.47
2019-03-24T03:08:34.410Z,2.51
2019-03-24T03:09:34.381Z,2.47
2019-03-24T03:10:34.368Z,2.43
2019-03-24T03:11:34.349Z,2.40
2019-03-24T03:12:34.350Z,2.40
2019-03-24T03:13:34.346Z,2.37
2019-03-24T03:14:34.325Z,2.29
2019-03-24T03:15:34.304Z,2.18
2019-03-24T03:16:38.839Z,2.28
2019-03-24T03:17:35.290Z,2.24
2019-03-24T03:18:34.294Z,2.18
2019-03-24T03:19:34.264Z,2.15
2019-03-24T03:20:34.254Z,2.15
2019-03-24T03:21:34.251Z,2.14
2019-03-24T03:22:34.243Z,2.17
2019-03-24T03:23:34.255Z,2.18
2019-03-24T03:24:34.212Z,2.11
2019-03-24T03:25:34.215Z,2.01
2019-03-24T03:26:34.203Z,2.15
2019-03-24T03:27:34.194Z,2.10
2019-03-24T03:28:34.187Z,2.04
2019-03-24T03:29:34.170Z,1.99
2019-03-24T03:30:34.202Z,1.95
2019-03-24T03:31:34.142Z,1.97
2019-03-24T03:32:34.131Z,2.07
2019-03-24T03:33:34.146Z,1.97
2019-03-24T03:34:34.120Z,2.04
2019-03-24T03:35:34.105Z,1.99
2019-03-24T03:36:34.094Z,1.95
2019-03-24T03:37:34.091Z,1.99
2019-03-24T03:38:34.103Z,1.99
2019-03-24T03:39:34.061Z,1.93
2019-03-24T03:40:34.069Z,1.99
2019-03-24T03:41:34.040Z,1.89
2019-03-24T03:42:34.020Z,1.92
2019-03-24T03:43:34.086Z,1.82
2019-03-24T03:44:34.006Z,1.78
2019-03-24T03:45:33.989Z,1.80
2019-03-24T03:46:33.984Z,1.75
2019-03-24T03:47:33.991Z,1.84
2019-03-24T03:48:33.963Z,1.71
2019-03-24T03:49:33.972Z,1.66
2019-03-24T03:50:33.945Z,1.71
2019-03-24T03:51:33.924Z,1.64
2019-03-24T03:52:33.914Z,1.69
2019-03-24T03:53:33.903Z,1.60
2019-03-24T03:54:33.912Z,1.62
2019-03-24T03:55:33.887Z,1.55
2019-03-24T03:56:33.932Z,1.38
2019-03-24T03:57:33.865Z,1.36
2019-03-24T03:58:33.854Z,1.56
2019-03-24T03:59:33.862Z,1.48
2019-03-24T04:00:33.830Z,1.52
2019-03-24T04:01:33.817Z,1.49
2019-03-24T04:02:33.808Z,1.57
2019-03-24T04:03:33.807Z,1.36
2019-03-24T04:04:33.807Z,1.48
2019-03-24T04:05:33.834Z,1.45
2019-03-24T04:06:33.788Z,1.36
2019-03-24T04:07:33.806Z,1.24
2019-03-24T04:08:33.745Z,1.30
2019-03-24T04:09:33.760Z,1.28
2019-03-24T04:10:33.728Z,1.31
2019-03-24T04:11:33.715Z,1.28
2019-03-24T04:12:33.748Z,1.23
2019-03-24T04:13:33.692Z,1.18
2019-03-24T04:14:33.710Z,1.17
2019-03-24T04:15:33.681Z,1.13
2019-03-24T04:16:33.665Z,1.18
2019-03-24T04:17:33.652Z,1.18
2019-03-24T04:18:33.641Z,1.12
2019-03-24T04:19:33.650Z,1.16
2019-03-24T04:20:33.688Z,1.12
2019-03-24T04:21:33.613Z,1.16
2019-03-24T04:22:33.601Z,1.06
2019-03-24T04:23:33.583Z,1.02
2019-03-24T04:24:33.609Z,1.02
2019-03-24T04:25:33.579Z,1.00
2019-03-24T04:26:33.646Z,0.91
2019-03-24T04:27:33.545Z,0.90
2019-03-24T04:28:33.548Z,0.90
2019-03-24T04:29:33.537Z,0.91
2019-03-24T04:30:33.516Z,0.92
2019-03-24T04:31:33.503Z,0.91
2019-03-24T04:32:33.529Z,0.85
2019-03-24T04:33:33.476Z,0.88
2019-03-24T04:34:33.490Z,0.85
2019-03-24T04:35:33.458Z,0.81
2019-03-24T04:36:33.496Z,0.78
2019-03-24T04:37:33.472Z,0.74
2019-03-24T04:38:33.456Z,0.70
2019-03-24T04:39:33.422Z,0.74
2019-03-24T04:40:33.424Z,0.69
2019-03-24T04:41:33.394Z,0.69
2019-03-24T04:42:33.392Z,0.70
2019-03-24T04:43:33.376Z,0.66
2019-03-24T04:44:33.369Z,0.62
2019-03-24T04:45:33.415Z,0.69
2019-03-24T04:46:33.347Z,0.67
2019-03-24T04:47:33.336Z,0.66
2019-03-24T04:48:33.323Z,0.66
2019-03-24T04:49:33.312Z,0.62
2019-03-24T04:50:33.313Z,0.67
2019-03-24T04:51:33.333Z,0.66
2019-03-24T04:52:33.293Z,0.64
2019-03-24T04:53:33.267Z,0.63
2019-03-24T04:54:33.263Z,0.64
2019-03-24T04:55:33.267Z,0.63
2019-03-24T04:56:33.236Z,0.63
2019-03-24T04:57:33.231Z,0.59
2019-03-24T04:58:33.241Z,0.67
2019-03-24T04:59:33.211Z,0.66
2019-03-24T05:00:33.215Z,0.59
2019-03-24T05:01:33.189Z,0.69
2019-03-24T05:02:33.182Z,0.67
2019-03-24T05:03:33.165Z,0.76
2019-03-24T05:04:33.158Z,0.67
2019-03-24T05:05:33.194Z,0.67
2019-03-24T05:06:33.135Z,0.62
2019-03-24T05:07:33.123Z,0.60
2019-03-24T05:08:33.109Z,0.50
2019-03-24T05:09:33.099Z,0.53
2019-03-24T05:10:33.101Z,0.50
2019-03-24T05:11:33.132Z,0.60
2019-03-24T05:12:33.071Z,0.51
2019-03-24T05:13:33.061Z,0.56
2019-03-24T05:14:33.056Z,0.53
2019-03-24T05:15:33.075Z,0.53
2019-03-24T05:16:33.029Z,0.56
2019-03-24T05:17:33.017Z,0.50
2019-03-24T05:18:33.003Z,0.48
2019-03-24T05:19:33.044Z,0.47
2019-03-24T05:20:32.987Z,0.44
2019-03-24T05:21:32.989Z,0.55
2019-03-24T05:22:32.962Z,0.50
2019-03-24T05:23:32.959Z,0.53
2019-03-24T05:24:32.943Z,0.59
2019-03-24T05:25:32.986Z,0.50
2019-03-24T05:26:32.940Z,0.48
2019-03-24T05:27:32.909Z,0.59
2019-03-24T05:28:32.901Z,0.50
2019-03-24T05:29:32.897Z,0.50
2019-03-24T05:30:32.879Z,0.63
2019-03-24T05:31:32.885Z,0.60
2019-03-24T05:32:32.893Z,0.59
2019-03-24T05:33:32.845Z,0.69
2019-03-24T05:34:32.839Z,0.66
2019-03-24T05:35:32.832Z,0.67
2019-03-24T05:36:32.838Z,0.66
2019-03-24T05:37:32.815Z,0.73
2019-03-24T05:38:32.798Z,0.74
2019-03-24T05:39:32.789Z,0.78
2019-03-24T05:40:32.776Z,0.84
2019-03-24T05:41:32.840Z,0.82
2019-03-24T05:42:32.758Z,0.92
2019-03-24T05:43:32.746Z,0.88
2019-03-24T05:44:32.732Z,1.08
2019-03-24T05:45:32.719Z,1.10
2019-03-24T05:46:32.736Z,1.20
2019-03-24T05:47:37.018Z,1.23
2019-03-24T05:48:32.720Z,1.23
2019-03-24T05:49:32.682Z,1.35
2019-03-24T05:50:32.672Z,1.42
2019-03-24T05:51:32.705Z,1.53
2019-03-24T05:52:32.650Z,1.64
2019-03-24T05:53:32.638Z,1.64
2019-03-24T05:54:32.643Z,1.63
2019-03-24T05:55:32.614Z,1.74
2019-03-24T05:56:32.616Z,1.82
2019-03-24T05:57:32.595Z,1.91
2019-03-24T05:58:32.580Z,1.95
2019-03-24T05:59:32.572Z,1.97
2019-03-24T06:00:32.563Z,2.21
2019-03-24T06:01:32.599Z,2.19
2019-03-24T06:02:32.538Z,2.17
2019-03-24T06:03:32.532Z,2.29
2019-03-24T06:04:32.524Z,2.32
2019-03-24T06:05:32.510Z,2.40
2019-03-24T06:06:32.504Z,2.45
2019-03-24T06:07:32.504Z,2.54
2019-03-24T06:08:32.516Z,2.57
2019-03-24T06:09:32.462Z,2.79
2019-03-24T06:10:32.458Z,2.89
2019-03-24T06:11:32.459Z,2.94
2019-03-24T06:12:32.454Z,3.12
2019-03-24T06:13:32.430Z,3.17
2019-03-24T06:14:32.416Z,3.25
2019-03-24T06:15:32.412Z,3.41
2019-03-24T06:16:32.464Z,3.41
2019-03-24T06:17:32.412Z,3.48
2019-03-24T06:18:32.376Z,3.70
2019-03-24T06:19:32.369Z,3.80
2019-03-24T06:20:32.346Z,3.94
2019-03-24T06:21:32.344Z,3.94
2019-03-24T06:22:32.343Z,4.09
2019-03-24T06:23:32.356Z,4.17
2019-03-24T06:24:32.307Z,4.27
2019-03-24T06:25:34.812Z,4.30
2019-03-24T06:26:32.303Z,4.49
2019-03-24T06:27:32.285Z,4.53
2019-03-24T06:28:32.259Z,4.60
2019-03-24T06:29:32.268Z,4.67
2019-03-24T06:30:32.241Z,4.79
2019-03-24T06:31:32.234Z,4.97
2019-03-24T06:32:32.237Z,5.06
2019-03-24T06:33:32.209Z,5.21
2019-03-24T06:34:32.197Z,5.36
2019-03-24T06:35:32.192Z,5.54
2019-03-24T06:36:32.250Z,5.62
2019-03-24T06:37:32.185Z,5.72
2019-03-24T06:38:32.155Z,5.93
2019-03-24T06:39:32.149Z,6.09
2019-03-24T06:40:32.132Z,6.19
2019-03-24T06:41:32.125Z,6.37
2019-03-24T06:42:32.149Z,6.37
2019-03-24T06:43:32.099Z,6.52
2019-03-24T06:44:32.095Z,6.65
2019-03-24T06:45:32.087Z,6.64
2019-03-24T06:46:32.077Z,6.88
2019-03-24T06:47:32.097Z,6.92
2019-03-24T06:48:32.049Z,7.00
2019-03-24T06:49:32.057Z,7.11
2019-03-24T06:50:32.031Z,7.22
2019-03-24T06:51:32.015Z,7.26
2019-03-24T06:52:32.003Z,7.47
2019-03-24T06:53:32.007Z,7.50
2019-03-24T06:54:31.980Z,7.60
2019-03-24T06:55:31.993Z,7.71
2019-03-24T06:56:31.963Z,7.66
2019-03-24T06:57:31.949Z,7.81
2019-03-24T06:58:32.148Z,7.86
2019-03-24T06:59:31.951Z,7.91
2019-03-24T07:00:31.922Z,8.01
2019-03-24T07:01:31.968Z,8.14
2019-03-24T07:02:31.894Z,8.29
2019-03-24T07:03:32.784Z,8.39
2019-03-24T07:04:32.186Z,8.47
2019-03-24T07:05:31.862Z,8.39
2019-03-24T07:06:31.858Z,8.53
2019-03-24T07:07:31.841Z,8.42
2019-03-24T07:08:31.849Z,8.56
2019-03-24T07:09:31.887Z,8.67
2019-03-24T07:10:31.836Z,8.74
2019-03-24T07:11:31.804Z,8.86
2019-03-24T07:12:31.790Z,8.93
2019-03-24T07:13:31.793Z,8.99
2019-03-24T07:14:31.770Z,9.08
2019-03-24T07:15:31.788Z,9.22
2019-03-24T07:16:31.744Z,9.30
2019-03-24T07:17:31.749Z,9.41
2019-03-24T07:18:31.745Z,9.52
2019-03-24T07:19:31.723Z,9.57
2019-03-24T07:20:31.702Z,9.81
2019-03-24T07:21:31.724Z,9.98
2019-03-24T07:22:31.691Z,10.03
2019-03-24T07:23:31.746Z,10.10
2019-03-24T07:24:31.662Z,10.38
2019-03-24T07:25:31.653Z,10.46
2019-03-24T07:26:31.638Z,10.80
2019-03-24T07:27:31.636Z,10.87
2019-03-24T07:28:31.634Z,11.03
2019-03-24T07:29:31.624Z,11.40
2019-03-24T07:30:31.596Z,11.56
2019-03-24T07:31:31.586Z,11.67
2019-03-24T07:32:31.572Z,11.85
2019-03-24T07:33:31.594Z,12.03
2019-03-24T07:34:31.550Z,12.10
2019-03-24T07:35:31.558Z,12.25
2019-03-24T07:36:31.528Z,12.36
2019-03-24T07:37:31.520Z,12.72
2019-03-24T07:38:31.511Z,13.01
2019-03-24T07:39:31.516Z,12.76
2019-03-24T07:40:31.490Z,12.96
2019-03-24T07:41:31.498Z,13.02
2019-03-24T07:42:31.466Z,13.36
2019-03-24T07:43:31.453Z,13.90
2019-03-24T07:44:31.458Z,14.19
2019-03-24T07:45:31.433Z,14.41
2019-03-24T07:46:31.420Z,14.59
2019-03-24T07:47:31.425Z,14.71
2019-03-24T07:48:31.413Z,15.26
2019-03-24T07:49:31.436Z,14.99
2019-03-24T07:50:31.381Z,15.32
2019-03-24T07:51:31.380Z,15.19
2019-03-24T07:52:31.365Z,15.35
2019-03-24T07:53:31.356Z,15.20
2019-03-24T07:54:31.392Z,15.17
2019-03-24T07:55:31.334Z,15.22
2019-03-24T07:56:31.329Z,15.08
2019-03-24T07:57:31.327Z,15.07
2019-03-24T07:58:31.313Z,14.74
2019-03-24T07:59:31.295Z,14.95
2019-03-24T08:00:31.306Z,14.89
2019-03-24T08:01:31.266Z,14.90
2019-03-24T08:02:31.252Z,14.71
2019-03-24T08:03:31.269Z,14.55
2019-03-24T08:04:31.243Z,15.01
2019-03-24T08:05:31.221Z,14.85
2019-03-24T08:06:31.207Z,14.82
2019-03-24T08:07:31.201Z,14.96
2019-03-24T08:08:31.210Z,14.90
2019-03-24T08:09:31.217Z,14.99
2019-03-24T08:10:31.175Z,15.10
2019-03-24T08:11:31.152Z,15.85
2019-03-24T08:12:31.145Z,15.83
2019-03-24T08:13:31.141Z,16.22
2019-03-24T08:14:31.158Z,15.78
2019-03-24T08:15:31.113Z,16.08
2019-03-24T08:16:31.127Z,16.32
2019-03-24T08:17:31.097Z,16.82
2019-03-24T08:18:31.075Z,17.43
2019-03-24T08:19:31.085Z,17.62
2019-03-24T08:20:31.059Z,17.65
2019-03-24T08:21:31.045Z,17.45
2019-03-24T08:22:31.041Z,17.81
2019-03-24T08:23:31.033Z,17.62
2019-03-24T08:24:31.041Z,17.94
2019-03-24T08:25:31.015Z,18.12
2019-03-24T08:26:30.992Z,18.21
2019-03-24T08:27:30.986Z,18.05
2019-03-24T08:28:30.975Z,17.86
2019-03-24T08:29:30.996Z,17.81
2019-03-24T08:30:30.953Z,17.47
2019-03-24T08:31:30.951Z,17.38
2019-03-24T08:32:30.934Z,17.35
2019-03-24T08:33:30.928Z,17.25
2019-03-24T08:34:30.915Z,17.07
2019-03-24T08:35:30.921Z,17.20
2019-03-24T08:36:30.906Z,16.97
2019-03-24T08:37:30.891Z,17.01
2019-03-24T08:38:30.877Z,16.97
2019-03-24T08:39:30.865Z,17.04
2019-03-24T08:40:30.861Z,17.12
2019-03-24T08:41:30.853Z,17.16
2019-03-24T08:42:30.837Z,17.10
2019-03-24T08:43:30.814Z,17.31
2019-03-24T08:44:30.824Z,17.27
2019-03-24T08:45:30.805Z,17.24
2019-03-24T08:46:30.776Z,17.02
2019-03-24T08:47:30.784Z,17.02
2019-03-24T08:48:40.424Z,17.06
2019-03-24T08:49:31.744Z,17.35
2019-03-24T08:50:30.754Z,17.50
2019-03-24T08:51:30.731Z,17.46
2019-03-24T08:52:30.714Z,17.65
2019-03-24T08:53:30.734Z,17.46
2019-03-24T08:54:30.690Z,17.19
2019-03-24T08:55:30.696Z,17.20
2019-03-24T08:56:30.672Z,17.17
2019-03-24T08:57:32.520Z,17.35
2019-03-24T08:58:30.658Z,17.13
2019-03-24T08:59:30.701Z,16.83
2019-03-24T09:00:31.172Z,16.64
2019-03-24T09:01:30.619Z,16.42
2019-03-24T09:02:30.606Z,16.28
2019-03-24T09:03:32.553Z,15.88
2019-03-24T09:04:30.586Z,15.78
2019-03-24T09:05:30.608Z,15.62
2019-03-24T09:06:30.592Z,15.59
2019-03-24T09:07:30.554Z,15.73
2019-03-24T09:08:30.544Z,15.81
2019-03-24T09:09:30.534Z,15.80
2019-03-24T09:10:30.532Z,15.59
2019-03-24T09:11:31.413Z,15.56
2019-03-24T09:12:31.326Z,15.20
2019-03-24T09:13:30.492Z,15.36
2019-03-24T09:14:30.479Z,15.26
2019-03-24T09:15:30.485Z,15.15
2019-03-24T09:16:30.456Z,15.58
2019-03-24T09:17:30.536Z,16.00
2019-03-24T09:18:30.452Z,15.90
2019-03-24T09:19:30.431Z,15.66
2019-03-24T09:20:40.988Z,15.50
2019-03-24T09:21:31.416Z,15.59
2019-03-24T09:22:30.399Z,15.91
2019-03-24T09:23:30.385Z,16.47
2019-03-24T09:24:30.374Z,16.58
2019-03-24T09:25:30.487Z,16.39
2019-03-24T09:26:30.378Z,16.29
2019-03-24T09:27:30.344Z,16.37
2019-03-24T09:28:30.327Z,16.59
2019-03-24T09:29:30.318Z,16.65
2019-03-24T09:30:30.327Z,17.06
2019-03-24T09:31:30.300Z,16.92
2019-03-24T09:32:30.311Z,16.72
2019-03-24T09:33:30.272Z,16.55
2019-03-24T09:34:30.266Z,16.62
2019-03-24T09:35:30.265Z,16.62
2019-03-24T09:36:30.239Z,16.76
2019-03-24T09:37:30.238Z,16.88
2019-03-24T09:38:30.219Z,16.76
2019-03-24T09:39:30.241Z,16.57
2019-03-24T09:40:30.222Z,16.18
2019-03-24T09:41:30.189Z,15.99
2019-03-24T09:42:30.175Z,16.25
2019-03-24T09:43:30.166Z,16.42
2019-03-24T09:44:30.168Z,16.39
2019-03-24T09:45:30.155Z,16.39
2019-03-24T09:46:30.210Z,16.24
2019-03-24T09:47:30.266Z,16.46
2019-03-24T09:48:30.111Z,16.69
2019-03-24T09:49:30.102Z,16.83
2019-03-24T09:50:30.092Z,16.87
2019-03-24T09:51:30.304Z,16.95
2019-03-24T09:52:30.070Z,17.10
2019-03-24T09:53:30.118Z,16.95
2019-03-24T09:54:30.046Z,16.98
2019-03-24T09:55:30.043Z,17.13
2019-03-24T09:56:30.053Z,16.99
2019-03-24T09:57:30.025Z,17.01
2019-03-24T09:58:30.010Z,17.34
2019-03-24T09:59:29.995Z,17.72
2019-03-24T10:00:29.986Z,17.93
2019-03-24T10:01:29.999Z,18.30
2019-03-24T10:02:29.986Z,18.56
2019-03-24T10:03:30.019Z,18.68
2019-03-24T10:04:29.948Z,18.61
2019-03-24T10:05:30.051Z,18.43
2019-03-24T10:06:29.936Z,18.34
2019-03-24T10:07:29.913Z,18.30
2019-03-24T10:08:30.118Z,18.39
2019-03-24T10:09:29.888Z,18.42
2019-03-24T10:10:38.006Z,18.30
2019-03-24T10:11:29.936Z,18.23
2019-03-24T10:12:29.854Z,18.24
2019-03-24T10:13:29.852Z,18.45
2019-03-24T10:14:29.836Z,18.52
2019-03-24T10:15:30.037Z,18.57
2019-03-24T10:16:29.833Z,19.19
2019-03-24T10:17:39.690Z,19.68
2019-03-24T10:18:29.798Z,20.02
2019-03-24T10:19:29.778Z,20.42
2019-03-24T10:20:29.770Z,20.82
2019-03-24T10:21:29.776Z,21.03
2019-03-24T10:22:29.758Z,21.20
2019-03-24T10:23:29.742Z,21.32
2019-03-24T10:24:29.738Z,21.43
2019-03-24T10:25:29.719Z,21.41
2019-03-24T10:26:29.722Z,21.51
2019-03-24T10:27:29.720Z,21.69
2019-03-24T10:28:29.688Z,21.55
2019-03-24T10:29:29.685Z,21.08
2019-03-24T10:30:29.666Z,20.36
2019-03-24T10:31:29.681Z,20.19
2019-03-24T10:32:29.660Z,19.72
2019-03-24T10:33:29.684Z,19.42
2019-03-24T10:34:29.627Z,19.41
2019-03-24T10:35:29.614Z,19.27
2019-03-24T10:36:29.630Z,18.75
2019-03-24T10:37:29.595Z,18.52
2019-03-24T10:38:29.587Z,18.21
2019-03-24T10:39:31.838Z,17.91
2019-03-24T10:40:29.560Z,17.47
2019-03-24T10:41:29.571Z,17.34
2019-03-24T10:42:29.549Z,17.09
2019-03-24T10:43:29.533Z,16.74
2019-03-24T10:44:29.521Z,16.74
2019-03-24T10:45:29.520Z,16.69
2019-03-24T10:46:29.510Z,16.90
2019-03-24T10:47:29.497Z,16.83
2019-03-24T10:48:33.628Z,16.82
2019-03-24T10:49:29.463Z,16.91
2019-03-24T10:50:29.468Z,17.07
2019-03-24T10:51:29.471Z,17.25
2019-03-24T10:52:29.430Z,17.13
2019-03-24T10:53:29.421Z,17.22
2019-03-24T10:54:29.419Z,17.32
2019-03-24T10:55:29.397Z,17.65
2019-03-24T10:56:29.420Z,17.87
2019-03-24T10:57:29.373Z,18.24
2019-03-24T10:58:29.369Z,18.74
2019-03-24T10:59:29.367Z,19.19
2019-03-24T11:00:29.345Z,19.38
2019-03-24T11:01:29.343Z,19.42
2019-03-24T11:02:29.345Z,19.45
2019-03-24T11:03:29.309Z,19.20
2019-03-24T11:04:29.322Z,18.88
2019-03-24T11:05:29.291Z,18.88
2019-03-24T11:06:29.274Z,18.85
2019-03-24T11:07:29.286Z,18.88
2019-03-24T11:08:29.259Z,18.83
2019-03-24T11:09:29.302Z,19.04
2019-03-24T11:10:29.239Z,19.41
2019-03-24T11:11:29.230Z,19.96
2019-03-24T11:12:29.231Z,20.02
2019-03-24T11:13:29.213Z,20.08
2019-03-24T11:14:29.206Z,20.05
2019-03-24T11:15:29.188Z,20.09
2019-03-24T11:16:29.173Z,20.44
2019-03-24T11:17:29.209Z,20.55
2019-03-24T11:18:29.179Z,20.30
2019-03-24T11:19:35.747Z,20.32
2019-03-24T11:20:30.154Z,20.63
2019-03-24T11:21:29.121Z,21.20
2019-03-24T11:22:29.129Z,21.44
2019-03-24T11:23:29.107Z,21.60
2019-03-24T11:24:29.099Z,21.81
2019-03-24T11:25:29.085Z,22.48
2019-03-24T11:26:29.076Z,22.96
2019-03-24T11:27:29.070Z,23.37
2019-03-24T11:28:29.056Z,23.52
2019-03-24T11:29:29.048Z,23.55
2019-03-24T11:30:29.027Z,23.69
2019-03-24T11:31:29.020Z,23.76
2019-03-24T11:32:29.031Z,23.73
2019-03-24T11:33:29.712Z,23.91
2019-03-24T11:34:28.997Z,23.60
2019-03-24T11:35:28.981Z,23.39
2019-03-24T11:36:28.974Z,23.18
2019-03-24T11:37:28.968Z,23.26
2019-03-24T11:38:28.953Z,23.56
2019-03-24T11:39:28.954Z,23.96
2019-03-24T11:40:28.932Z,24.28
2019-03-24T11:41:28.934Z,24.38
2019-03-24T11:42:28.926Z,24.59
2019-03-24T11:43:28.901Z,24.62
2019-03-24T11:44:28.901Z,24.76
2019-03-24T11:45:28.878Z,24.99
2019-03-24T11:46:28.860Z,24.68
2019-03-24T11:47:28.890Z,24.41
2019-03-24T11:48:28.838Z,24.78
2019-03-24T11:49:28.830Z,25.26
2019-03-24T11:50:28.820Z,25.16
2019-03-24T11:51:28.810Z,25.23
2019-03-24T11:52:28.836Z,25.40
2019-03-24T11:53:28.788Z,25.61
2019-03-24T11:54:28.779Z,25.56
2019-03-24T11:55:28.772Z,25.68
2019-03-24T11:56:28.760Z,25.81
2019-03-24T11:57:28.755Z,26.20
2019-03-24T11:58:28.739Z,26.11
2019-03-24T11:59:28.721Z,25.88
2019-03-24T12:00:28.716Z,25.98
2019-03-24T12:01:38.031Z,25.88
2019-03-24T12:02:29.710Z,25.78
2019-03-24T12:03:28.691Z,25.85
2019-03-24T12:04:28.679Z,25.43
2019-03-24T12:05:28.663Z,25.21
2019-03-24T12:06:28.654Z,25.28
2019-03-24T12:07:28.669Z,25.22
2019-03-24T12:08:28.652Z,25.34
2019-03-24T12:09:28.624Z,25.64
2019-03-24T12:10:28.610Z,25.64
2019-03-24T12:11:28.602Z,25.46
2019-03-24T12:12:28.605Z,25.63
2019-03-24T12:13:28.579Z,25.56
2019-03-24T12:14:28.600Z,25.64
2019-03-24T12:15:28.565Z,25.68
2019-03-24T12:16:28.614Z,25.78
2019-03-24T12:17:28.554Z,26.07
2019-03-24T12:18:28.543Z,26.15
2019-03-24T12:19:28.518Z,26.36
2019-03-24T12:20:28.510Z,26.90
2019-03-24T12:21:28.499Z,26.75
2019-03-24T12:22:28.512Z,27.01
2019-03-24T12:23:28.479Z,27.13
2019-03-24T12:24:28.493Z,27.32
2019-03-24T12:25:28.461Z,27.35
2019-03-24T12:26:28.471Z,27.07
2019-03-24T12:27:28.455Z,26.78
2019-03-24T12:28:28.425Z,26.49
2019-03-24T12:29:28.443Z,26.03
2019-03-24T12:30:28.417Z,25.40
2019-03-24T12:31:28.407Z,25.16
2019-03-24T12:32:28.395Z,24.74
2019-03-24T12:33:28.379Z,24.36
2019-03-24T12:34:28.367Z,23.86
2019-03-24T12:35:28.350Z,23.56
2019-03-24T12:36:28.342Z,23.60
2019-03-24T12:37:28.345Z,23.48
2019-03-24T12:38:28.325Z,23.34
2019-03-24T12:39:28.319Z,23.29
2019-03-24T12:40:28.308Z,23.06
2019-03-24T12:41:28.299Z,22.80
2019-03-24T12:42:28.289Z,22.58
2019-03-24T12:43:28.289Z,22.52
2019-03-24T12:44:28.265Z,22.11
2019-03-24T12:45:28.247Z,22.12
2019-03-24T12:46:28.233Z,22.07
2019-03-24T12:47:28.246Z,22.16
2019-03-24T12:48:28.309Z,22.37
2019-03-24T12:49:28.207Z,22.93
2019-03-24T12:50:31.792Z,22.98
2019-03-24T12:51:28.180Z,23.08
2019-03-24T12:52:28.170Z,23.04
2019-03-24T12:53:28.178Z,23.36
2019-03-24T12:54:28.152Z,23.44
2019-03-24T12:55:28.137Z,23.96
2019-03-24T12:56:28.127Z,24.38
2019-03-24T12:57:28.115Z,24.76
2019-03-24T12:58:28.133Z,24.76
2019-03-24T12:59:28.128Z,24.79
2019-03-24T13:00:28.088Z,25.14
2019-03-24T13:01:28.073Z,25.51
2019-03-24T13:02:49.094Z,25.64
2019-03-24T13:03:28.060Z,25.95
2019-03-24T13:04:28.058Z,25.85
2019-03-24T13:05:28.037Z,26.01
2019-03-24T13:06:28.029Z,26.42